sensor_id;sensor_type;location;lat;lon;timestamp;pressure;altitude;pressure_sealevel;temperature;humidity
929;BME280;451;47.988;7.842;2022-10-16T00:00:58;98347.03;;;15.80;100.00
929;BME280;451;47.988;7.842;2022-10-16T00:09:59;98256.34;;;15.38;100.00
929;BME280;451;47.988;7.842;2022-10-16T00:19:02;98260.81;;;15.31;100.00
929;BME280;451;47.988;7.842;2022-10-16T00:28:04;98157.63;;;14.78;100.00
929;BME280;451;47.988;7.842;2022-10-16T00:37:05;97858.22;;;12.92;100.00
929;BME280;451;47.988;7.842;2022-10-16T00:55:38;98183.25;;;14.84;100.00
929;BME280;451;47.988;7.842;2022-10-16T01:04:44;98359.25;;;15.81;100.00
929;BME280;451;47.988;7.842;2022-10-16T01:13:50;98358.47;;;15.73;100.00
929;BME280;451;47.988;7.842;2022-10-16T01:23:18;98355.19;;;15.71;100.00
929;BME280;451;47.988;7.842;2022-10-16T01:32:31;98369.06;;;15.73;100.00
929;BME280;451;47.988;7.842;2022-10-16T01:41:42;98363.16;;;15.71;100.00
929;BME280;451;47.988;7.842;2022-10-16T02:00:12;98338.47;;;15.84;100.00
929;BME280;451;47.988;7.842;2022-10-16T02:09:15;98370.66;;;15.81;100.00
929;BME280;451;47.988;7.842;2022-10-16T02:18:18;98261.88;;;15.04;100.00
929;BME280;451;47.988;7.842;2022-10-16T02:36:26;98348.63;;;15.81;100.00
929;BME280;451;47.988;7.842;2022-10-16T02:45:28;98362.03;;;16.12;100.00
929;BME280;451;47.988;7.842;2022-10-16T02:54:30;98353.16;;;15.67;100.00
929;BME280;451;47.988;7.842;2022-10-16T03:03:32;98371.06;;;15.98;100.00
929;BME280;451;47.988;7.842;2022-10-16T03:12:34;98354.75;;;15.88;100.00
929;BME280;451;47.988;7.842;2022-10-16T03:21:36;98403.28;;;15.88;100.00
929;BME280;451;47.988;7.842;2022-10-16T03:30:38;98221.13;;;14.85;100.00
929;BME280;451;47.988;7.842;2022-10-16T03:39:41;98371.28;;;15.96;100.00
929;BME280;451;47.988;7.842;2022-10-16T03:48:42;98334.00;;;15.58;100.00
929;BME280;451;47.988;7.842;2022-10-16T03:57:44;98355.81;;;15.60;100.00
929;BME280;451;47.988;7.842;2022-10-16T04:06:46;98325.41;;;15.69;100.00
929;BME280;451;47.988;7.842;2022-10-16T04:15:47;98212.97;;;15.19;100.00
929;BME280;451;47.988;7.842;2022-10-16T04:24:49;98385.34;;;15.97;100.00
929;BME280;451;47.988;7.842;2022-10-16T04:33:51;98344.75;;;15.90;100.00
929;BME280;451;47.988;7.842;2022-10-16T04:42:52;98391.03;;;15.94;100.00
929;BME280;451;47.988;7.842;2022-10-16T04:51:54;98241.50;;;14.84;100.00
929;BME280;451;47.988;7.842;2022-10-16T05:00:56;98380.44;;;15.94;100.00
929;BME280;451;47.988;7.842;2022-10-16T05:09:57;98398.41;;;15.98;100.00
929;BME280;451;47.988;7.842;2022-10-16T05:18:59;98403.09;;;15.90;100.00
929;BME280;451;47.988;7.842;2022-10-16T05:28:01;98402.44;;;16.14;100.00
929;BME280;451;47.988;7.842;2022-10-16T05:37:03;98416.31;;;16.16;100.00
929;BME280;451;47.988;7.842;2022-10-16T05:46:23;98379.22;;;15.96;100.00
929;BME280;451;47.988;7.842;2022-10-16T05:55:25;98446.31;;;16.17;100.00
929;BME280;451;47.988;7.842;2022-10-16T06:04:26;98445.69;;;16.28;100.00
929;BME280;451;47.988;7.842;2022-10-16T06:13:28;98437.91;;;16.33;100.00
929;BME280;451;47.988;7.842;2022-10-16T06:22:30;98454.28;;;16.23;100.00
929;BME280;451;47.988;7.842;2022-10-16T06:31:31;98296.06;;;15.38;100.00
929;BME280;451;47.988;7.842;2022-10-16T06:40:34;98497.44;;;16.83;100.00
929;BME280;451;47.988;7.842;2022-10-16T06:49:36;98490.22;;;17.03;100.00
929;BME280;451;47.988;7.842;2022-10-16T06:58:38;98265.28;;;15.50;100.00
929;BME280;451;47.988;7.842;2022-10-16T07:07:40;98528.34;;;17.22;100.00
929;BME280;451;47.988;7.842;2022-10-16T07:16:41;98309.13;;;15.72;100.00
929;BME280;451;47.988;7.842;2022-10-16T07:25:43;98409.75;;;16.32;100.00
929;BME280;451;47.988;7.842;2022-10-16T07:34:45;98403.25;;;16.21;100.00
929;BME280;451;47.988;7.842;2022-10-16T07:43:52;98366.75;;;16.10;100.00
929;BME280;451;47.988;7.842;2022-10-16T07:52:54;98588.56;;;17.48;100.00
929;BME280;451;47.988;7.842;2022-10-16T08:01:55;98587.41;;;17.75;100.00
929;BME280;451;47.988;7.842;2022-10-16T08:10:57;98596.09;;;18.27;100.00
929;BME280;451;47.988;7.842;2022-10-16T08:19:59;98606.19;;;18.43;100.00
929;BME280;451;47.988;7.842;2022-10-16T08:29:00;98273.16;;;16.85;100.00
929;BME280;451;47.988;7.842;2022-10-16T08:38:03;98563.66;;;18.86;100.00
929;BME280;451;47.988;7.842;2022-10-16T08:56:13;98588.84;;;18.65;100.00
929;BME280;451;47.988;7.842;2022-10-16T09:05:36;98596.16;;;19.13;100.00
929;BME280;451;47.988;7.842;2022-10-16T09:15:01;98616.16;;;19.40;100.00
929;BME280;451;47.988;7.842;2022-10-16T09:24:25;98607.13;;;20.19;100.00
929;BME280;451;47.988;7.842;2022-10-16T09:33:38;98623.53;;;21.62;99.82
929;BME280;451;47.988;7.842;2022-10-16T09:42:42;98615.34;;;22.87;86.55
929;BME280;451;47.988;7.842;2022-10-16T09:51:44;98423.34;;;22.26;79.75
929;BME280;451;47.988;7.842;2022-10-16T10:00:51;98581.06;;;24.94;68.90
929;BME280;451;47.988;7.842;2022-10-16T10:09:54;98609.72;;;25.73;64.82
929;BME280;451;47.988;7.842;2022-10-16T10:18:59;98615.53;;;26.37;59.60
929;BME280;451;47.988;7.842;2022-10-16T10:55:51;98602.78;;;25.97;50.96
929;BME280;451;47.988;7.842;2022-10-16T11:05:13;98586.31;;;25.21;53.94
929;BME280;451;47.988;7.842;2022-10-16T11:14:21;98531.44;;;24.80;50.17
929;BME280;451;47.988;7.842;2022-10-16T11:23:28;98591.69;;;25.78;49.44
929;BME280;451;47.988;7.842;2022-10-16T11:42:20;98549.97;;;26.77;49.19
929;BME280;451;47.988;7.842;2022-10-16T12:00:41;98185.66;;;24.01;49.34
929;BME280;451;47.988;7.842;2022-10-16T12:09:46;98384.81;;;25.70;50.09
929;BME280;451;47.988;7.842;2022-10-16T12:18:48;98551.34;;;26.24;51.02
929;BME280;451;47.988;7.842;2022-10-16T12:37:14;98457.69;;;25.28;50.74
929;BME280;451;47.988;7.842;2022-10-16T12:46:34;98553.72;;;25.85;52.06
929;BME280;451;47.988;7.842;2022-10-16T12:55:49;98555.00;;;25.62;50.87
929;BME280;451;47.988;7.842;2022-10-16T13:33:04;98546.41;;;25.60;50.42
929;BME280;451;47.988;7.842;2022-10-16T13:42:25;98560.38;;;25.62;49.65
929;BME280;451;47.988;7.842;2022-10-16T13:51:29;98544.31;;;25.92;49.44
929;BME280;451;47.988;7.842;2022-10-16T14:00:31;98551.78;;;25.60;50.24
929;BME280;451;47.988;7.842;2022-10-16T14:09:33;98466.53;;;25.13;51.35
929;BME280;451;47.988;7.842;2022-10-16T14:18:38;98378.91;;;24.70;53.73
929;BME280;451;47.988;7.842;2022-10-16T14:27:41;98539.47;;;26.20;51.65
929;BME280;451;47.988;7.842;2022-10-16T14:36:42;98548.63;;;26.19;50.39
929;BME280;451;47.988;7.842;2022-10-16T14:45:50;98535.94;;;25.79;50.11
929;BME280;451;47.988;7.842;2022-10-16T14:54:53;98548.59;;;25.83;49.97
929;BME280;451;47.988;7.842;2022-10-16T15:03:57;98549.16;;;25.95;51.23
929;BME280;451;47.988;7.842;2022-10-16T15:12:59;98469.78;;;25.15;50.98
929;BME280;451;47.988;7.842;2022-10-16T15:22:01;98577.94;;;25.17;53.75
929;BME280;451;47.988;7.842;2022-10-16T15:31:04;98486.69;;;24.59;52.89
929;BME280;451;47.988;7.842;2022-10-16T15:40:06;98565.56;;;24.74;55.59
929;BME280;451;47.988;7.842;2022-10-16T15:49:08;98555.22;;;24.56;65.52
929;BME280;451;47.988;7.842;2022-10-16T15:58:10;98574.94;;;24.30;69.04
929;BME280;451;47.988;7.842;2022-10-16T16:07:12;98589.50;;;23.58;76.37
929;BME280;451;47.988;7.842;2022-10-16T16:16:15;98601.78;;;22.77;84.27
929;BME280;451;47.988;7.842;2022-10-16T16:25:17;98600.84;;;21.93;92.09
929;BME280;451;47.988;7.842;2022-10-16T16:34:20;98580.94;;;21.32;98.15
929;BME280;451;47.988;7.842;2022-10-16T16:43:23;98619.94;;;21.17;98.04
929;BME280;451;47.988;7.842;2022-10-16T16:52:28;98563.38;;;19.49;100.00
929;BME280;451;47.988;7.842;2022-10-16T17:01:30;98545.19;;;19.57;100.00
929;BME280;451;47.988;7.842;2022-10-16T17:10:33;98668.75;;;19.88;100.00
929;BME280;451;47.988;7.842;2022-10-16T17:19:34;98601.06;;;19.16;100.00
929;BME280;451;47.988;7.842;2022-10-16T17:28:36;98678.66;;;19.44;100.00
929;BME280;451;47.988;7.842;2022-10-16T17:37:38;98682.13;;;18.83;100.00
929;BME280;451;47.988;7.842;2022-10-16T17:46:39;98649.97;;;18.53;100.00
929;BME280;451;47.988;7.842;2022-10-16T17:55:41;98703.16;;;18.67;100.00
929;BME280;451;47.988;7.842;2022-10-16T18:04:43;98721.03;;;18.22;100.00
929;BME280;451;47.988;7.842;2022-10-16T18:13:45;98722.28;;;18.12;100.00
929;BME280;451;47.988;7.842;2022-10-16T18:22:47;98712.19;;;17.83;100.00
929;BME280;451;47.988;7.842;2022-10-16T18:31:49;98740.19;;;17.92;100.00
929;BME280;451;47.988;7.842;2022-10-16T18:40:51;98755.38;;;17.79;100.00
929;BME280;451;47.988;7.842;2022-10-16T18:49:52;98711.25;;;17.31;100.00
929;BME280;451;47.988;7.842;2022-10-16T18:58:55;98756.63;;;17.50;100.00
929;BME280;451;47.988;7.842;2022-10-16T19:07:59;98786.91;;;17.42;100.00
929;BME280;451;47.988;7.842;2022-10-16T19:17:01;98769.53;;;17.40;100.00
929;BME280;451;47.988;7.842;2022-10-16T19:26:05;98803.06;;;17.21;100.00
929;BME280;451;47.988;7.842;2022-10-16T19:35:07;98729.06;;;16.78;100.00
929;BME280;451;47.988;7.842;2022-10-16T19:44:14;98760.97;;;16.91;100.00
929;BME280;451;47.988;7.842;2022-10-16T19:53:16;98830.66;;;17.26;100.00
929;BME280;451;47.988;7.842;2022-10-16T20:02:18;98883.41;;;17.23;100.00
929;BME280;451;47.988;7.842;2022-10-16T20:11:22;98853.38;;;17.49;100.00
929;BME280;451;47.988;7.842;2022-10-16T20:20:25;98854.56;;;17.20;100.00
929;BME280;451;47.988;7.842;2022-10-16T20:29:27;98844.38;;;17.23;100.00
929;BME280;451;47.988;7.842;2022-10-16T20:38:28;98872.75;;;17.03;100.00
929;BME280;451;47.988;7.842;2022-10-16T20:47:30;98846.31;;;16.82;100.00
929;BME280;451;47.988;7.842;2022-10-16T20:56:34;98878.81;;;16.84;100.00
929;BME280;451;47.988;7.842;2022-10-16T21:05:41;98877.19;;;16.89;100.00
929;BME280;451;47.988;7.842;2022-10-16T21:14:43;98874.78;;;17.01;100.00
929;BME280;451;47.988;7.842;2022-10-16T21:23:45;98875.31;;;16.77;100.00
929;BME280;451;47.988;7.842;2022-10-16T21:32:46;98887.97;;;16.75;100.00
929;BME280;451;47.988;7.842;2022-10-16T21:41:49;98892.84;;;16.65;100.00
929;BME280;451;47.988;7.842;2022-10-16T21:50:51;98890.03;;;16.73;100.00
929;BME280;451;47.988;7.842;2022-10-16T21:59:53;98893.84;;;16.64;100.00
929;BME280;451;47.988;7.842;2022-10-16T22:08:57;98897.94;;;16.60;100.00
929;BME280;451;47.988;7.842;2022-10-16T22:18:02;98847.31;;;16.27;100.00
929;BME280;451;47.988;7.842;2022-10-16T22:27:04;98903.78;;;16.48;100.00
929;BME280;451;47.988;7.842;2022-10-16T22:36:08;98887.41;;;16.45;100.00
929;BME280;451;47.988;7.842;2022-10-16T22:45:10;98947.84;;;16.49;100.00
929;BME280;451;47.988;7.842;2022-10-16T22:54:12;98920.09;;;16.45;100.00
929;BME280;451;47.988;7.842;2022-10-16T23:03:14;98866.38;;;16.02;100.00
929;BME280;451;47.988;7.842;2022-10-16T23:12:16;98918.38;;;16.31;100.00
929;BME280;451;47.988;7.842;2022-10-16T23:21:23;98923.66;;;16.31;100.00
929;BME280;451;47.988;7.842;2022-10-16T23:30:25;98905.03;;;16.18;100.00
929;BME280;451;47.988;7.842;2022-10-16T23:39:27;98792.47;;;15.37;100.00
929;BME280;451;47.988;7.842;2022-10-16T23:48:28;98914.06;;;15.96;100.00
929;BME280;451;47.988;7.842;2022-10-16T23:57:31;98901.25;;;15.71;100.00
